createdAt,value
2018-12-26T00:00:31.452Z,29.80
2018-12-26T00:01:31.309Z,29.60
2018-12-26T00:02:31.232Z,25.90
2018-12-26T00:03:31.216Z,28.60
2018-12-26T00:04:31.202Z,27.70
2018-12-26T00:05:31.191Z,27.80
2018-12-26T00:06:31.213Z,25.90
2018-12-26T00:07:31.190Z,28.70
2018-12-26T00:08:31.181Z,29.90
2018-12-26T00:09:32.073Z,31.80
2018-12-26T00:10:31.376Z,32.50
2018-12-26T00:11:31.146Z,32.30
2018-12-26T00:12:31.146Z,32.10
2018-12-26T00:13:31.143Z,34.00
2018-12-26T00:14:31.112Z,31.50
2018-12-26T00:15:31.101Z,29.70
2018-12-26T00:16:31.305Z,28.30
2018-12-26T00:17:31.080Z,28.50
2018-12-26T00:18:31.075Z,28.60
2018-12-26T00:19:31.314Z,27.50
2018-12-26T00:20:31.057Z,25.90
2018-12-26T00:21:31.049Z,25.70
2018-12-26T00:22:31.038Z,26.00
2018-12-26T00:23:31.034Z,26.50
2018-12-26T00:24:31.024Z,25.80
2018-12-26T00:25:31.213Z,28.70
2018-12-26T00:26:31.012Z,31.20
2018-12-26T00:27:31.009Z,33.70
2018-12-26T00:28:30.987Z,32.70
2018-12-26T00:29:30.970Z,30.20
2018-12-26T00:30:31.172Z,31.20
2018-12-26T00:31:30.958Z,30.90
2018-12-26T00:32:30.967Z,29.00
2018-12-26T00:33:30.941Z,29.50
2018-12-26T00:34:30.926Z,32.60
2018-12-26T00:35:30.918Z,32.50
2018-12-26T00:36:31.112Z,30.10
2018-12-26T00:37:30.912Z,31.10
2018-12-26T00:38:30.889Z,29.00
2018-12-26T00:39:30.882Z,29.10
2018-12-26T00:40:30.867Z,28.30
2018-12-26T00:41:30.860Z,27.10
2018-12-26T00:42:30.865Z,25.70
2018-12-26T00:43:30.848Z,24.50
2018-12-26T00:44:30.846Z,24.40
2018-12-26T00:45:30.844Z,26.50
2018-12-26T00:46:30.816Z,29.00
2018-12-26T00:47:30.802Z,29.20
2018-12-26T00:48:30.807Z,29.90
2018-12-26T00:49:30.791Z,29.40
2018-12-26T00:50:30.777Z,32.00
2018-12-26T00:51:30.782Z,29.90
2018-12-26T00:52:30.774Z,30.00
2018-12-26T00:53:30.968Z,31.60
2018-12-26T00:54:30.738Z,31.60
2018-12-26T00:55:30.743Z,27.80
2018-12-26T00:56:30.733Z,28.50
2018-12-26T00:57:30.716Z,28.10
2018-12-26T00:58:30.717Z,31.20
2018-12-26T00:59:30.693Z,30.70
2018-12-26T01:00:30.678Z,29.80
2018-12-26T01:01:30.674Z,31.90
2018-12-26T01:02:30.665Z,31.70
2018-12-26T01:03:30.671Z,31.30
2018-12-26T01:04:30.653Z,32.00
2018-12-26T01:05:30.667Z,29.30
2018-12-26T01:06:30.634Z,28.60
2018-12-26T01:07:30.621Z,28.40
2018-12-26T01:08:30.816Z,28.70
2018-12-26T01:09:30.616Z,28.70
2018-12-26T01:10:30.604Z,27.20
2018-12-26T01:11:30.585Z,26.70
2018-12-26T01:12:30.566Z,27.60
2018-12-26T01:13:30.563Z,26.90
2018-12-26T01:14:30.758Z,28.40
2018-12-26T01:15:30.546Z,29.10
2018-12-26T01:16:30.746Z,30.40
2018-12-26T01:17:30.729Z,29.50
2018-12-26T01:18:30.519Z,27.90
2018-12-26T01:19:30.501Z,29.70
2018-12-26T01:20:30.505Z,29.40
2018-12-26T01:21:30.480Z,30.80
2018-12-26T01:22:30.487Z,32.30
2018-12-26T01:23:30.667Z,30.70
2018-12-26T01:24:30.455Z,33.10
2018-12-26T01:25:30.471Z,31.80
2018-12-26T01:26:30.442Z,31.90
2018-12-26T01:27:30.430Z,29.80
2018-12-26T01:28:30.414Z,31.90
2018-12-26T01:29:30.404Z,33.40
2018-12-26T01:30:30.392Z,30.50
2018-12-26T01:31:30.392Z,32.40
2018-12-26T01:32:30.585Z,30.00
2018-12-26T01:33:30.570Z,33.90
2018-12-26T01:34:30.356Z,31.00
2018-12-26T01:35:30.381Z,31.30
2018-12-26T01:36:30.351Z,34.20
2018-12-26T01:37:30.331Z,31.80
2018-12-26T01:38:30.319Z,32.00
2018-12-26T01:39:30.306Z,29.80
2018-12-26T01:40:30.296Z,31.10
2018-12-26T01:41:30.302Z,28.10
2018-12-26T01:42:30.291Z,30.00
2018-12-26T01:43:30.480Z,30.10
2018-12-26T01:44:30.260Z,30.50
2018-12-26T01:45:30.247Z,31.20
2018-12-26T01:46:30.250Z,33.00
2018-12-26T01:47:30.230Z,34.40
2018-12-26T01:48:30.224Z,32.70
2018-12-26T01:49:30.218Z,33.60
2018-12-26T01:50:30.206Z,31.00
2018-12-26T01:51:30.206Z,31.40
2018-12-26T01:52:30.210Z,31.60
2018-12-26T01:53:30.174Z,31.30
2018-12-26T01:54:30.170Z,30.30
2018-12-26T01:55:30.170Z,29.30
2018-12-26T01:56:30.352Z,31.60
2018-12-26T01:57:30.134Z,33.40
2018-12-26T01:58:30.141Z,33.10
2018-12-26T01:59:30.111Z,31.70
2018-12-26T02:00:30.306Z,31.70
2018-12-26T02:01:30.103Z,33.00
2018-12-26T02:02:30.084Z,33.50
2018-12-26T02:03:30.076Z,32.00
2018-12-26T02:04:30.267Z,33.20
2018-12-26T02:05:30.057Z,35.70
2018-12-26T02:06:30.058Z,33.20
2018-12-26T02:07:30.051Z,29.30
2018-12-26T02:08:30.025Z,31.40
2018-12-26T02:09:30.031Z,29.30
2018-12-26T02:10:30.228Z,30.40
2018-12-26T02:11:30.009Z,32.40
2018-12-26T02:12:30.197Z,31.50
2018-12-26T02:13:29.979Z,30.60
2018-12-26T02:14:29.971Z,30.50
2018-12-26T02:15:30.179Z,28.10
2018-12-26T02:16:29.961Z,27.40
2018-12-26T02:17:29.941Z,27.80
2018-12-26T02:18:29.942Z,29.40
2018-12-26T02:19:29.926Z,28.60
2018-12-26T02:20:30.115Z,29.10
2018-12-26T02:21:29.905Z,27.10
2018-12-26T02:22:30.096Z,29.30
2018-12-26T02:23:29.884Z,29.60
2018-12-26T02:24:29.877Z,30.10
2018-12-26T02:25:29.864Z,31.60
2018-12-26T02:26:36.404Z,30.20
2018-12-26T02:27:29.849Z,31.40
2018-12-26T02:28:29.850Z,32.70
2018-12-26T02:29:29.853Z,31.00
2018-12-26T02:30:29.824Z,29.90
2018-12-26T02:31:29.845Z,30.20
2018-12-26T02:32:30.465Z,32.70
2018-12-26T02:33:29.801Z,29.80
2018-12-26T02:34:29.778Z,27.50
2018-12-26T02:35:29.984Z,28.30
2018-12-26T02:36:29.765Z,28.50
2018-12-26T02:37:29.955Z,29.70
2018-12-26T02:38:29.737Z,28.20
2018-12-26T02:39:29.743Z,29.80
2018-12-26T02:40:29.727Z,33.80
2018-12-26T02:41:29.712Z,33.80
2018-12-26T02:42:29.704Z,31.40
2018-12-26T02:43:29.700Z,32.50
2018-12-26T02:44:29.802Z,31.90
2018-12-26T02:45:29.666Z,31.40
2018-12-26T02:46:29.677Z,31.70
2018-12-26T02:47:29.651Z,30.20
2018-12-26T02:48:29.850Z,29.90
2018-12-26T02:49:29.652Z,29.10
2018-12-26T02:50:29.636Z,32.20
2018-12-26T02:51:29.724Z,31.10
2018-12-26T02:52:29.600Z,30.30
2018-12-26T02:53:29.606Z,30.70
2018-12-26T02:54:29.586Z,29.90
2018-12-26T02:55:29.776Z,28.90
2018-12-26T02:56:29.563Z,28.80
2018-12-26T02:57:29.555Z,29.00
2018-12-26T02:58:29.559Z,28.60
2018-12-26T02:59:29.546Z,28.20
2018-12-26T03:00:29.539Z,27.90
2018-12-26T03:01:29.542Z,29.90
2018-12-26T03:02:29.529Z,30.70
2018-12-26T03:03:29.503Z,27.60
2018-12-26T03:04:29.500Z,29.00
2018-12-26T03:05:29.583Z,29.00
2018-12-26T03:06:29.477Z,29.20
2018-12-26T03:07:29.477Z,33.60
2018-12-26T03:08:29.467Z,32.30
2018-12-26T03:09:29.473Z,32.90
2018-12-26T03:10:29.635Z,32.80
2018-12-26T03:11:29.433Z,33.20
2018-12-26T03:12:29.461Z,33.50
2018-12-26T03:13:29.618Z,34.00
2018-12-26T03:14:29.401Z,34.10
2018-12-26T03:15:29.394Z,32.20
2018-12-26T03:16:29.371Z,32.30
2018-12-26T03:17:29.375Z,29.50
2018-12-26T03:18:29.351Z,32.00
2018-12-26T03:19:29.343Z,32.50
2018-12-26T03:20:29.531Z,30.80
2018-12-26T03:21:29.319Z,31.80
2018-12-26T03:22:29.509Z,30.00
2018-12-26T03:23:29.313Z,28.10
2018-12-26T03:24:29.300Z,28.50
2018-12-26T03:25:29.494Z,31.80
2018-12-26T03:26:29.396Z,33.20
2018-12-26T03:27:29.266Z,31.50
2018-12-26T03:28:29.280Z,33.20
2018-12-26T03:29:29.243Z,31.80
2018-12-26T03:30:29.242Z,32.10
2018-12-26T03:31:29.238Z,30.70
2018-12-26T03:32:29.213Z,32.40
2018-12-26T03:33:29.212Z,33.20
2018-12-26T03:34:29.192Z,31.00
2018-12-26T03:35:29.213Z,30.70
2018-12-26T03:36:29.178Z,29.40
2018-12-26T03:37:29.173Z,28.80
2018-12-26T03:38:29.153Z,30.20
2018-12-26T03:39:29.152Z,30.10
2018-12-26T03:40:29.163Z,31.30
2018-12-26T03:41:29.148Z,30.50
2018-12-26T03:42:29.149Z,29.80
2018-12-26T03:43:29.139Z,31.00
2018-12-26T03:44:29.293Z,30.90
2018-12-26T03:45:29.286Z,31.90
2018-12-26T03:46:29.091Z,30.20
2018-12-26T03:47:29.078Z,30.30
2018-12-26T03:48:29.272Z,31.20
2018-12-26T03:49:29.044Z,32.70
2018-12-26T03:50:29.247Z,31.00
2018-12-26T03:51:29.227Z,30.70
2018-12-26T03:52:29.017Z,34.80
2018-12-26T03:53:29.014Z,31.90
2018-12-26T03:54:28.999Z,31.40
2018-12-26T03:55:28.999Z,32.00
2018-12-26T03:56:28.987Z,31.60
2018-12-26T03:57:28.969Z,31.10
2018-12-26T03:58:28.956Z,31.50
2018-12-26T03:59:28.946Z,29.20
2018-12-26T04:00:28.938Z,32.10
2018-12-26T04:01:28.925Z,31.30
2018-12-26T04:02:28.916Z,31.60
2018-12-26T04:03:28.910Z,31.50
2018-12-26T04:04:29.097Z,31.70
2018-12-26T04:05:29.541Z,32.40
2018-12-26T04:06:28.881Z,33.80
2018-12-26T04:07:28.872Z,32.60
2018-12-26T04:08:29.059Z,34.20
2018-12-26T04:09:28.853Z,32.70
2018-12-26T04:10:28.854Z,29.90
2018-12-26T04:11:28.838Z,31.30
2018-12-26T04:12:28.821Z,31.20
2018-12-26T04:13:28.816Z,31.50
2018-12-26T04:14:28.801Z,29.00
2018-12-26T04:15:28.801Z,30.70
2018-12-26T04:16:28.773Z,30.40
2018-12-26T04:17:28.974Z,27.70
2018-12-26T04:18:28.766Z,29.20
2018-12-26T04:19:28.758Z,29.10
2018-12-26T04:20:28.944Z,29.00
2018-12-26T04:21:28.733Z,29.40
2018-12-26T04:22:28.728Z,28.30
2018-12-26T04:23:28.710Z,30.00
2018-12-26T04:24:28.716Z,32.90
2018-12-26T04:25:28.692Z,29.10
2018-12-26T04:26:28.679Z,32.10
2018-12-26T04:27:28.893Z,36.30
2018-12-26T04:28:28.670Z,34.40
2018-12-26T04:29:28.657Z,31.20
2018-12-26T04:30:28.654Z,32.60
2018-12-26T04:31:28.641Z,33.50
2018-12-26T04:32:28.622Z,30.90
2018-12-26T04:33:28.629Z,34.60
2018-12-26T04:34:28.610Z,31.30
2018-12-26T04:35:28.618Z,29.20
2018-12-26T04:36:28.595Z,32.40
2018-12-26T04:37:28.576Z,31.40
2018-12-26T04:38:28.557Z,30.90
2018-12-26T04:39:28.557Z,28.70
2018-12-26T04:40:28.557Z,28.50
2018-12-26T04:41:28.738Z,29.40
2018-12-26T04:42:28.528Z,30.40
2018-12-26T04:43:28.528Z,28.10
2018-12-26T04:44:28.508Z,30.10
2018-12-26T04:45:28.498Z,28.10
2018-12-26T04:46:28.699Z,28.80
2018-12-26T04:47:28.476Z,29.70
2018-12-26T04:48:28.474Z,30.00
2018-12-26T04:49:28.461Z,30.40
2018-12-26T04:50:28.443Z,30.10
2018-12-26T04:51:28.433Z,33.20
2018-12-26T04:52:28.440Z,28.10
2018-12-26T04:53:28.417Z,30.00
2018-12-26T04:54:28.404Z,30.40
2018-12-26T04:55:28.408Z,30.70
2018-12-26T04:56:28.606Z,30.90
2018-12-26T04:57:28.378Z,31.30
2018-12-26T04:58:28.569Z,34.00
2018-12-26T04:59:28.573Z,31.80
2018-12-26T05:00:28.549Z,33.40
2018-12-26T05:01:28.337Z,30.50
2018-12-26T05:02:28.330Z,30.90
2018-12-26T05:03:28.326Z,35.20
2018-12-26T05:04:28.311Z,31.40
2018-12-26T05:05:28.503Z,30.50
2018-12-26T05:06:28.288Z,32.20
2018-12-26T05:07:28.500Z,32.20
2018-12-26T05:08:28.284Z,29.50
2018-12-26T05:09:28.459Z,32.10
2018-12-26T05:10:28.248Z,29.10
2018-12-26T05:11:28.242Z,28.60
2018-12-26T05:12:28.439Z,32.10
2018-12-26T05:13:28.223Z,30.80
2018-12-26T05:14:28.423Z,31.60
2018-12-26T05:15:28.204Z,33.90
2018-12-26T05:16:28.200Z,31.30
2018-12-26T05:17:28.386Z,30.70
2018-12-26T05:18:28.170Z,32.30
2018-12-26T05:19:28.160Z,29.50
2018-12-26T05:20:28.359Z,32.10
2018-12-26T05:21:28.143Z,29.50
2018-12-26T05:22:28.129Z,30.70
2018-12-26T05:23:28.125Z,30.40
2018-12-26T05:24:28.118Z,30.80
2018-12-26T05:25:28.106Z,30.30
2018-12-26T05:26:28.100Z,31.70
2018-12-26T05:27:34.165Z,31.00
2018-12-26T05:28:28.086Z,30.50
2018-12-26T05:29:28.277Z,30.50
2018-12-26T05:30:28.062Z,33.10
2018-12-26T05:31:28.051Z,31.80
2018-12-26T05:32:28.246Z,34.10
2018-12-26T05:33:28.018Z,30.40
2018-12-26T05:34:28.011Z,32.10
2018-12-26T05:35:28.007Z,32.20
2018-12-26T05:36:28.020Z,32.00
2018-12-26T05:37:27.987Z,31.50
2018-12-26T05:38:27.988Z,31.00
2018-12-26T05:39:27.965Z,33.90
2018-12-26T05:40:27.960Z,31.30
2018-12-26T05:41:27.943Z,32.20
2018-12-26T05:42:27.949Z,33.00
2018-12-26T05:43:27.920Z,32.00
2018-12-26T05:44:28.122Z,33.30
2018-12-26T05:45:27.910Z,30.30
2018-12-26T05:46:27.893Z,32.30
2018-12-26T05:47:28.087Z,32.60
2018-12-26T05:48:27.890Z,34.40
2018-12-26T05:49:27.869Z,34.90
2018-12-26T05:50:28.061Z,35.20
2018-12-26T05:51:27.840Z,35.20
2018-12-26T05:52:28.045Z,37.20
2018-12-26T05:53:27.838Z,36.40
2018-12-26T05:54:27.829Z,35.80
2018-12-26T05:55:27.805Z,36.00
2018-12-26T05:56:27.802Z,39.40
2018-12-26T05:57:27.811Z,36.10
2018-12-26T05:58:27.792Z,34.90
2018-12-26T05:59:27.776Z,36.80
2018-12-26T06:00:27.785Z,34.10
2018-12-26T06:01:27.745Z,35.00
2018-12-26T06:02:27.739Z,36.60
2018-12-26T06:03:27.736Z,37.20
2018-12-26T06:04:27.744Z,37.10
2018-12-26T06:05:27.719Z,36.00
2018-12-26T06:06:27.718Z,38.30
2018-12-26T06:07:27.696Z,34.00
2018-12-26T06:08:27.685Z,38.00
2018-12-26T06:09:27.681Z,37.90
2018-12-26T06:10:27.668Z,35.10
2018-12-26T06:11:27.656Z,36.80
2018-12-26T06:12:27.643Z,37.20
2018-12-26T06:13:27.629Z,36.40
2018-12-26T06:14:27.618Z,36.60
2018-12-26T06:15:27.824Z,37.40
2018-12-26T06:16:27.597Z,33.60
2018-12-26T06:17:27.596Z,35.60
2018-12-26T06:18:27.584Z,37.60
2018-12-26T06:19:27.573Z,35.50
2018-12-26T06:20:27.559Z,33.90
2018-12-26T06:21:27.752Z,33.50
2018-12-26T06:22:27.540Z,35.90
2018-12-26T06:23:27.532Z,35.90
2018-12-26T06:24:27.528Z,31.80
2018-12-26T06:25:27.512Z,33.30
2018-12-26T06:26:27.511Z,34.30
2018-12-26T06:27:27.489Z,34.10
2018-12-26T06:28:27.497Z,34.00
2018-12-26T06:29:27.486Z,38.50
2018-12-26T06:30:27.463Z,35.70
2018-12-26T06:31:27.460Z,35.50
2018-12-26T06:32:27.646Z,37.60
2018-12-26T06:33:27.643Z,34.70
2018-12-26T06:34:27.625Z,36.80
2018-12-26T06:35:27.474Z,38.40
2018-12-26T06:36:27.419Z,35.80
2018-12-26T06:37:27.401Z,37.40
2018-12-26T06:38:27.392Z,36.90
2018-12-26T06:39:27.395Z,36.50
2018-12-26T06:40:27.379Z,36.40
2018-12-26T06:41:27.359Z,36.30
2018-12-26T06:42:27.379Z,35.70
2018-12-26T06:43:27.339Z,35.70
2018-12-26T06:44:27.332Z,35.20
2018-12-26T06:45:27.320Z,36.00
2018-12-26T06:46:27.312Z,36.20
2018-12-26T06:47:27.302Z,35.50
2018-12-26T06:48:27.300Z,36.30
2018-12-26T06:49:27.287Z,36.10
2018-12-26T06:50:27.291Z,35.10
2018-12-26T06:51:27.292Z,34.60
2018-12-26T06:52:27.255Z,35.80
2018-12-26T06:53:27.254Z,36.20
2018-12-26T06:54:27.252Z,35.50
2018-12-26T06:55:27.231Z,34.50
2018-12-26T06:56:27.224Z,34.90
2018-12-26T06:57:27.215Z,33.20
2018-12-26T06:58:27.215Z,33.50
2018-12-26T06:59:27.194Z,34.00
2018-12-26T07:00:27.204Z,34.00
2018-12-26T07:01:27.396Z,34.40
2018-12-26T07:02:27.187Z,33.40
2018-12-26T07:03:27.165Z,34.10
2018-12-26T07:04:27.143Z,33.70
2018-12-26T07:05:27.136Z,32.30
2018-12-26T07:06:27.127Z,33.10
2018-12-26T07:07:27.135Z,36.40
2018-12-26T07:08:27.103Z,35.80
2018-12-26T07:09:27.098Z,35.90
2018-12-26T07:10:27.295Z,35.30
2018-12-26T07:11:27.076Z,34.50
2018-12-26T07:12:27.076Z,35.10
2018-12-26T07:13:27.071Z,35.10
2018-12-26T07:14:27.071Z,35.90
2018-12-26T07:15:27.041Z,36.40
2018-12-26T07:16:27.034Z,34.20
2018-12-26T07:17:27.029Z,34.40
2018-12-26T07:18:27.034Z,33.80
2018-12-26T07:19:27.037Z,35.00
2018-12-26T07:20:27.010Z,33.40
2018-12-26T07:21:26.989Z,34.40
2018-12-26T07:22:26.996Z,35.60
2018-12-26T07:23:26.980Z,34.90
2018-12-26T07:24:26.966Z,33.80
2018-12-26T07:25:27.162Z,34.20
2018-12-26T07:26:26.954Z,34.70
2018-12-26T07:27:26.932Z,33.90
2018-12-26T07:28:26.929Z,35.60
2018-12-26T07:29:26.935Z,35.80
2018-12-26T07:30:26.902Z,34.10
2018-12-26T07:31:26.912Z,33.90
2018-12-26T07:32:26.895Z,31.90
2018-12-26T07:33:26.902Z,33.30
2018-12-26T07:34:26.884Z,33.90
2018-12-26T07:35:26.862Z,33.40
2018-12-26T07:36:26.852Z,33.40
2018-12-26T07:37:26.877Z,33.60
2018-12-26T07:38:26.844Z,33.10
2018-12-26T07:39:26.836Z,32.90
2018-12-26T07:40:26.828Z,33.70
2018-12-26T07:41:26.803Z,33.60
2018-12-26T07:42:26.811Z,33.20
2018-12-26T07:43:26.785Z,32.00
2018-12-26T07:44:26.793Z,33.70
2018-12-26T07:45:26.777Z,33.80
2018-12-26T07:46:26.775Z,32.70
2018-12-26T07:47:26.748Z,31.60
2018-12-26T07:48:28.946Z,32.10
2018-12-26T07:49:26.727Z,31.50
2018-12-26T07:50:26.720Z,32.00
2018-12-26T07:51:26.938Z,33.20
2018-12-26T07:52:26.716Z,31.60
2018-12-26T07:53:26.901Z,32.50
2018-12-26T07:54:26.688Z,33.40
2018-12-26T07:55:26.680Z,32.50
2018-12-26T07:56:26.681Z,32.10
2018-12-26T07:57:26.676Z,32.40
2018-12-26T07:58:26.676Z,32.60
2018-12-26T07:59:26.644Z,31.90
2018-12-26T08:00:26.638Z,30.70
2018-12-26T08:01:26.641Z,32.90
2018-12-26T08:02:26.626Z,31.60
2018-12-26T08:03:26.603Z,31.20
2018-12-26T08:04:26.597Z,32.30
2018-12-26T08:05:26.806Z,30.80
2018-12-26T08:06:26.593Z,31.80
2018-12-26T08:07:26.577Z,32.30
2018-12-26T08:08:26.778Z,31.80
2018-12-26T08:09:26.571Z,32.60
2018-12-26T08:10:26.543Z,31.90
2018-12-26T08:11:26.555Z,31.90
2018-12-26T08:12:26.723Z,31.30
2018-12-26T08:13:26.538Z,31.90
2018-12-26T08:14:26.504Z,32.10
2018-12-26T08:15:26.537Z,32.00
2018-12-26T08:16:26.484Z,32.30
2018-12-26T08:17:26.493Z,32.70
2018-12-26T08:18:26.476Z,32.40
2018-12-26T08:19:26.462Z,31.60
2018-12-26T08:20:26.459Z,31.10
2018-12-26T08:21:26.641Z,32.10
2018-12-26T08:22:26.456Z,31.40
2018-12-26T08:23:26.431Z,31.40
2018-12-26T08:24:26.425Z,29.10
2018-12-26T08:25:26.407Z,29.70
2018-12-26T08:26:26.410Z,30.70
2018-12-26T08:27:26.402Z,31.50
2018-12-26T08:28:27.009Z,31.80
2018-12-26T08:29:26.573Z,31.90
2018-12-26T08:30:26.366Z,31.30
2018-12-26T08:31:26.354Z,32.20
2018-12-26T08:32:26.361Z,32.00
2018-12-26T08:33:26.347Z,30.60
2018-12-26T08:34:26.336Z,31.80
2018-12-26T08:35:26.313Z,32.90
2018-12-26T08:36:26.503Z,32.80
2018-12-26T08:37:26.495Z,32.10
2018-12-26T08:38:26.282Z,32.90
2018-12-26T08:39:26.293Z,32.80
2018-12-26T08:40:26.277Z,32.80
2018-12-26T08:41:26.273Z,31.10
2018-12-26T08:42:26.250Z,32.30
2018-12-26T08:43:26.239Z,32.70
2018-12-26T08:44:26.248Z,30.80
2018-12-26T08:45:26.240Z,32.40
2018-12-26T08:46:26.215Z,31.90
2018-12-26T08:47:26.210Z,31.20
2018-12-26T08:48:26.237Z,32.40
2018-12-26T08:49:26.197Z,32.80
2018-12-26T08:50:26.204Z,32.70
2018-12-26T08:51:26.188Z,32.50
2018-12-26T08:52:26.177Z,32.40
2018-12-26T08:53:26.165Z,32.90
2018-12-26T08:54:26.143Z,30.60
2018-12-26T08:55:26.149Z,31.40
2018-12-26T08:56:26.132Z,31.40
2018-12-26T08:57:26.349Z,31.20
2018-12-26T08:58:26.114Z,32.30
2018-12-26T08:59:26.107Z,32.30
2018-12-26T09:00:26.093Z,31.80
2018-12-26T09:01:26.093Z,31.10
2018-12-26T09:02:26.071Z,31.40
2018-12-26T09:03:26.081Z,30.70
2018-12-26T09:04:26.071Z,30.50
2018-12-26T09:05:26.051Z,29.10
2018-12-26T09:06:26.040Z,30.90
2018-12-26T09:07:26.031Z,30.10
2018-12-26T09:08:26.020Z,30.80
2018-12-26T09:09:26.213Z,31.00
2018-12-26T09:10:28.006Z,30.40
2018-12-26T09:11:26.010Z,30.30
2018-12-26T09:12:25.983Z,31.20
2018-12-26T09:13:26.010Z,30.80
2018-12-26T09:14:25.984Z,30.00
2018-12-26T09:15:25.954Z,30.90
2018-12-26T09:16:25.954Z,30.80
2018-12-26T09:17:25.964Z,30.20
2018-12-26T09:18:25.947Z,30.40
2018-12-26T09:19:25.922Z,29.20
2018-12-26T09:21:26.123Z,29.00
2018-12-26T09:22:25.897Z,29.10
2018-12-26T09:23:25.882Z,31.20
2018-12-26T09:24:25.881Z,29.70
2018-12-26T09:25:25.871Z,29.20
2018-12-26T09:26:25.872Z,27.80
2018-12-26T09:27:25.864Z,29.10
2018-12-26T09:28:25.857Z,28.40
2018-12-26T09:29:25.839Z,28.30
2018-12-26T09:30:25.853Z,30.00
2018-12-26T09:31:25.821Z,30.70
2018-12-26T09:32:25.817Z,28.00
2018-12-26T09:33:25.798Z,27.90
2018-12-26T09:34:26.008Z,29.10
2018-12-26T09:35:25.846Z,29.00
2018-12-26T09:36:25.786Z,29.30
2018-12-26T09:37:25.767Z,29.40
2018-12-26T09:38:25.774Z,29.50
2018-12-26T09:39:25.748Z,29.60
2018-12-26T09:40:25.750Z,28.00
2018-12-26T09:41:25.729Z,30.50
2018-12-26T09:42:25.726Z,30.90
2018-12-26T09:43:25.916Z,30.10
2018-12-26T09:44:25.721Z,28.80
2018-12-26T09:45:25.702Z,28.20
2018-12-26T09:46:25.698Z,29.60
2018-12-26T09:47:25.688Z,28.10
2018-12-26T09:48:25.689Z,29.10
2018-12-26T09:49:25.657Z,29.40
2018-12-26T09:50:25.656Z,30.00
2018-12-26T09:51:25.848Z,30.60
2018-12-26T09:52:25.633Z,28.70
2018-12-26T09:53:25.619Z,30.20
2018-12-26T09:54:25.615Z,28.70
2018-12-26T09:55:25.632Z,29.30
2018-12-26T09:56:25.597Z,29.70
2018-12-26T09:57:25.607Z,28.50
2018-12-26T09:58:25.606Z,28.80
2018-12-26T09:59:25.571Z,28.30
2018-12-26T10:00:25.579Z,29.00
2018-12-26T10:01:25.565Z,28.00
2018-12-26T10:02:25.567Z,28.30
2018-12-26T10:03:25.740Z,27.80
2018-12-26T10:04:25.537Z,27.80
2018-12-26T10:05:25.517Z,28.50
2018-12-26T10:06:25.522Z,27.10
2018-12-26T10:07:25.512Z,27.50
2018-12-26T10:08:25.487Z,26.50
2018-12-26T10:09:25.516Z,27.70
2018-12-26T10:10:25.684Z,27.60
2018-12-26T10:11:25.581Z,27.70
2018-12-26T10:12:25.463Z,27.80
2018-12-26T10:13:25.448Z,27.30
2018-12-26T10:14:25.453Z,26.90
2018-12-26T10:15:25.438Z,25.70
2018-12-26T10:16:25.425Z,25.90
2018-12-26T10:17:25.433Z,26.00
2018-12-26T10:18:25.424Z,26.80
2018-12-26T10:19:25.605Z,26.40
2018-12-26T10:20:25.402Z,25.90
2018-12-26T10:21:25.436Z,27.30
2018-12-26T10:22:25.396Z,25.90
2018-12-26T10:23:25.361Z,25.80
2018-12-26T10:24:25.373Z,25.70
2018-12-26T10:25:25.345Z,26.70
2018-12-26T10:26:25.366Z,26.20
2018-12-26T10:27:25.333Z,27.10
2018-12-26T10:28:25.323Z,27.20
2018-12-26T10:29:25.330Z,26.60
2018-12-26T10:30:25.299Z,26.30
2018-12-26T10:31:25.292Z,27.60
2018-12-26T10:32:25.298Z,26.70
2018-12-26T10:33:25.485Z,27.20
2018-12-26T10:34:25.296Z,28.70
2018-12-26T10:35:25.469Z,25.90
2018-12-26T10:36:25.261Z,25.40
2018-12-26T10:37:25.446Z,25.40
2018-12-26T10:38:25.234Z,28.40
2018-12-26T10:39:25.230Z,28.20
2018-12-26T10:40:25.216Z,27.70
2018-12-26T10:41:25.208Z,27.10
2018-12-26T10:42:25.201Z,26.90
2018-12-26T10:43:25.208Z,26.30
2018-12-26T10:44:25.207Z,25.50
2018-12-26T10:45:25.187Z,25.50
2018-12-26T10:46:25.182Z,25.10
2018-12-26T10:47:25.159Z,26.00
2018-12-26T10:48:25.149Z,26.00
2018-12-26T10:49:25.141Z,26.10
2018-12-26T10:50:25.130Z,26.40
2018-12-26T10:51:25.130Z,25.00
2018-12-26T10:52:25.134Z,26.40
2018-12-26T10:53:25.108Z,25.10
2018-12-26T10:54:25.104Z,25.40
2018-12-26T10:55:25.093Z,25.20
2018-12-26T10:56:25.087Z,25.30
2018-12-26T10:57:25.281Z,25.10
2018-12-26T10:58:25.072Z,26.40
2018-12-26T10:59:25.066Z,25.00
2018-12-26T11:00:25.256Z,24.60
2018-12-26T11:01:25.055Z,22.80
2018-12-26T11:02:25.042Z,23.90
2018-12-26T11:03:25.034Z,23.90
2018-12-26T11:04:25.216Z,24.40
2018-12-26T11:05:29.545Z,24.70
2018-12-26T11:06:24.999Z,24.30
2018-12-26T11:07:25.197Z,25.00
2018-12-26T11:08:24.996Z,23.70
2018-12-26T11:09:24.985Z,25.60
2018-12-26T11:10:24.966Z,26.60
2018-12-26T11:11:25.163Z,26.00
2018-12-26T11:12:24.958Z,25.70
2018-12-26T11:13:24.958Z,25.00
2018-12-26T11:14:24.942Z,23.00
2018-12-26T11:15:24.925Z,23.80
2018-12-26T11:16:24.928Z,24.10
2018-12-26T11:17:24.920Z,25.00
2018-12-26T11:18:24.901Z,24.50
2018-12-26T11:19:24.898Z,23.50
2018-12-26T11:20:24.886Z,24.10
2018-12-26T11:21:24.875Z,24.40
2018-12-26T11:22:24.867Z,24.30
2018-12-26T11:23:25.062Z,24.20
2018-12-26T11:24:24.856Z,25.40
2018-12-26T11:25:24.840Z,25.20
2018-12-26T11:26:24.838Z,23.70
2018-12-26T11:27:24.836Z,24.50
2018-12-26T11:28:24.833Z,24.70
2018-12-26T11:29:24.820Z,25.20
2018-12-26T11:30:24.814Z,25.20
2018-12-26T11:31:24.993Z,23.90
2018-12-26T11:32:24.789Z,24.60
2018-12-26T11:33:24.782Z,23.30
2018-12-26T11:34:24.980Z,24.00
2018-12-26T11:35:24.964Z,25.30
2018-12-26T11:36:24.764Z,26.30
2018-12-26T11:37:24.956Z,24.40
2018-12-26T11:38:24.738Z,24.30
2018-12-26T11:39:24.730Z,25.00
2018-12-26T11:40:24.744Z,23.50
2018-12-26T11:41:24.740Z,24.20
2018-12-26T11:42:24.915Z,25.70
2018-12-26T11:43:24.693Z,25.00
2018-12-26T11:44:24.691Z,24.80
2018-12-26T11:45:24.887Z,24.50
2018-12-26T11:46:24.675Z,25.20
2018-12-26T11:47:24.681Z,24.50
2018-12-26T11:48:24.659Z,23.10
2018-12-26T11:49:24.651Z,23.40
2018-12-26T11:50:24.653Z,24.80
2018-12-26T11:51:24.628Z,25.20
2018-12-26T11:52:24.640Z,25.30
2018-12-26T11:53:24.614Z,24.20
2018-12-26T11:54:24.815Z,23.60
2018-12-26T11:55:24.593Z,24.80
2018-12-26T11:56:24.592Z,24.00
2018-12-26T11:57:24.594Z,23.60
2018-12-26T11:58:24.584Z,23.60
2018-12-26T11:59:27.276Z,24.60
2018-12-26T12:00:24.570Z,23.80
2018-12-26T12:01:24.562Z,25.20
2018-12-26T12:02:24.547Z,24.00
2018-12-26T12:03:24.529Z,23.00
2018-12-26T12:04:24.725Z,23.20
2018-12-26T12:05:24.524Z,24.40
2018-12-26T12:06:24.518Z,23.30
2018-12-26T12:07:24.511Z,24.60
2018-12-26T12:08:24.495Z,25.10
2018-12-26T12:09:24.487Z,24.50
2018-12-26T12:10:24.687Z,23.40
2018-12-26T12:11:24.675Z,25.40
2018-12-26T12:12:24.468Z,24.10
2018-12-26T12:13:24.457Z,24.40
2018-12-26T12:14:24.451Z,24.40
2018-12-26T12:15:24.448Z,24.40
2018-12-26T12:16:24.428Z,26.00
2018-12-26T12:17:24.443Z,23.00
2018-12-26T12:18:24.420Z,24.10
2018-12-26T12:19:24.414Z,24.90
2018-12-26T12:20:24.419Z,23.20
2018-12-26T12:21:24.730Z,23.60
2018-12-26T12:22:24.394Z,24.00
2018-12-26T12:23:24.394Z,24.90
2018-12-26T12:24:24.387Z,29.40
2018-12-26T12:25:24.377Z,32.90
2018-12-26T12:26:24.359Z,26.20
2018-12-26T12:27:24.350Z,24.80
2018-12-26T12:28:24.351Z,24.10
2018-12-26T12:29:24.336Z,23.40
2018-12-26T12:30:24.339Z,22.90
2018-12-26T12:31:24.317Z,24.70
2018-12-26T12:32:24.318Z,23.40
2018-12-26T12:33:24.309Z,24.10
2018-12-26T12:34:24.294Z,24.90
2018-12-26T12:35:24.284Z,27.80
2018-12-26T12:36:24.277Z,25.40
2018-12-26T12:37:24.281Z,25.70
2018-12-26T12:38:24.280Z,25.60
2018-12-26T12:39:24.273Z,23.80
2018-12-26T12:40:24.246Z,22.50
2018-12-26T12:41:24.255Z,22.40
2018-12-26T12:42:24.235Z,22.80
2018-12-26T12:43:24.237Z,23.30
2018-12-26T12:44:24.228Z,23.80
2018-12-26T12:45:24.225Z,22.90
2018-12-26T12:46:24.219Z,21.60
2018-12-26T12:47:24.207Z,23.60
2018-12-26T12:48:24.190Z,22.90
2018-12-26T12:49:24.184Z,25.00
2018-12-26T12:50:24.168Z,23.00
2018-12-26T12:51:24.374Z,21.40
2018-12-26T12:52:24.153Z,22.70
2018-12-26T12:53:24.151Z,21.60